Time;durP1;ratioP1;P1;durP2;ratioP2;P2;SDS_P1;SDS_P2;PMS_P1;PMS_P2;Temp;Humidity;BMP_temperature;BMP_pressure;BME280_temperature;BME280_humidity;BME280_pressure;Samples;Min_cycle;Max_cycle;Signal;HPM_P1;HPM_P2
2023/04/29 00:01:39;;;;;;;36.13;18.40;;;;;;;9.29;100.00;101352.91;5089246;28;20085;-73
2023/04/29 00:04:05;;;;;;;38.25;18.27;;;;;;;9.24;100.00;101357.94;5089041;28;20024;-73
2023/04/29 00:06:30;;;;;;;36.38;19.30;;;;;;;9.28;100.00;101367.22;5089254;28;20034;-73
2023/04/29 00:08:56;;;;;;;37.25;20.25;;;;;;;9.28;100.00;101364.56;5088963;28;20042;-73
2023/04/29 00:11:21;;;;;;;40.30;20.90;;;;;;;9.25;100.00;101367.59;5089390;28;20479;-73
2023/04/29 00:13:46;;;;;;;35.47;19.63;;;;;;;9.19;100.00;101371.75;5088783;28;20364;-73
2023/04/29 00:16:12;;;;;;;37.88;23.63;;;;;;;9.18;100.00;101380.75;5089149;28;20077;-73
2023/04/29 00:18:38;;;;;;;37.50;20.83;;;;;;;9.17;100.00;101372.97;5089020;28;20032;-73
2023/04/29 00:21:07;;;;;;;36.13;21.83;;;;;;;9.17;100.00;101372.97;5089049;28;20028;-73
2023/04/29 00:23:33;;;;;;;37.83;20.38;;;;;;;9.07;100.00;101367.03;5089205;28;20172;-73
2023/04/29 00:25:58;;;;;;;34.08;18.92;;;;;;;9.08;100.00;101374.00;5089046;28;20031;-73
2023/04/29 00:28:24;;;;;;;36.78;20.42;;;;;;;9.07;100.00;101381.16;5089095;28;20033;-73
2023/04/29 00:30:50;;;;;;;32.20;19.05;;;;;;;8.98;100.00;101375.00;5090264;28;20437;-73
2023/04/29 00:33:15;;;;;;;29.40;16.30;;;;;;;8.91;100.00;101373.25;5093088;28;20405;-73
2023/04/29 00:35:40;;;;;;;34.47;16.90;;;;;;;8.99;100.00;101389.16;5092780;28;20109;-73
2023/04/29 00:38:06;;;;;;;34.20;18.48;;;;;;;8.94;100.00;101384.34;5092778;28;20032;-73
2023/04/29 00:40:31;;;;;;;31.23;17.77;;;;;;;8.97;100.00;101391.16;5092746;28;20080;-73
2023/04/29 00:42:57;;;;;;;29.58;17.23;;;;;;;8.97;100.00;101391.16;5092867;28;20032;-73
2023/04/29 00:45:22;;;;;;;30.73;16.20;;;;;;;8.94;100.00;101394.19;5092831;28;20391;-73
2023/04/29 00:47:48;;;;;;;33.15;16.63;;;;;;;8.92;100.00;101391.69;5092559;28;20074;-73
2023/04/29 00:50:13;;;;;;;29.02;17.92;;;;;;;8.91;100.00;101392.69;5092352;28;20083;-73
2023/04/29 00:52:39;;;;;;;29.70;15.85;;;;;;;8.89;100.00;101393.88;5092465;28;20066;-73
2023/04/29 00:55:11;;;;;;;32.33;17.73;;;;;;;8.87;100.00;101388.69;5092407;28;20035;-74
2023/04/29 00:57:38;;;;;;;31.35;17.27;;;;;;;8.90;100.00;101398.16;5092593;28;20475;-73
2023/04/29 01:00:04;;;;;;;32.67;21.13;;;;;;;8.87;100.00;101395.84;5092611;28;20027;-73
2023/04/29 01:02:30;;;;;;;33.50;22.65;;;;;;;8.86;100.00;101395.03;5091493;28;20020;-73
2023/04/29 01:04:56;;;;;;;32.70;18.17;;;;;;;8.83;100.00;101399.84;5092508;28;20100;-73
2023/04/29 01:07:53;;;;;;;35.60;19.75;;;;;;;8.82;100.00;101407.00;5092383;28;20039;-73
2023/04/29 01:10:27;;;;;;;36.65;19.40;;;;;;;8.80;100.00;101403.69;5092446;28;20047;-73
2023/04/29 01:13:06;;;;;;;35.40;19.58;;;;;;;8.87;100.00;101417.97;5090871;28;20086;-73
2023/04/29 01:15:36;;;;;;;34.65;19.42;;;;;;;8.84;100.00;101415.66;5092006;28;20035;-73
2023/04/29 01:18:11;;;;;;;32.22;18.88;;;;;;;8.83;100.00;101418.47;5091941;28;20031;-73
2023/04/29 01:20:38;;;;;;;35.45;22.23;;;;;;;8.84;100.00;101425.47;5092016;28;20115;-73
2023/04/29 01:23:03;;;;;;;37.20;21.88;;;;;;;8.82;100.00;101428.28;5092123;28;20062;-73
2023/04/29 01:25:29;;;;;;;35.40;20.73;;;;;;;8.83;100.00;101418.47;5092089;28;20067;-74
2023/04/29 01:28:13;;;;;;;36.90;20.73;;;;;;;8.78;100.00;101422.50;5091848;28;20016;-73
2023/04/29 01:30:49;;;;;;;40.00;21.25;;;;;;;8.78;100.00;101422.50;5091812;28;20081;-73
2023/04/29 01:33:30;;;;;;;38.72;21.17;;;;;;;8.78;100.00;101419.00;5091867;28;20360;-73
2023/04/29 01:35:58;;;;;;;37.17;19.55;;;;;;;8.81;100.00;101426.63;5092272;28;20024;-73
2023/04/29 01:38:38;;;;;;;37.65;21.08;;;;;;;8.83;100.00;101435.28;5091896;28;20123;-73
2023/04/29 01:41:14;;;;;;;37.50;23.73;;;;;;;8.80;100.00;101422.31;5089817;28;20494;-73
2023/04/29 01:43:40;;;;;;;37.03;20.17;;;;;;;8.79;100.00;101433.94;5091559;28;20028;-73
2023/04/29 01:46:08;;;;;;;33.65;17.40;;;;;;;8.77;100.00;101425.31;5091581;28;20031;-73
2023/04/29 01:48:33;;;;;;;35.20;17.58;;;;;;;8.78;100.00;101437.63;5091147;28;20491;-73
2023/04/29 01:50:58;;;;;;;36.58;19.25;;;;;;;8.71;100.00;101434.78;5091210;28;20042;-73
2023/04/29 01:53:24;;;;;;;35.08;18.88;;;;;;;8.70;100.00;101435.81;5091526;28;20028;-73
2023/04/29 01:55:49;;;;;;;34.47;17.08;;;;;;;8.73;100.00;101440.78;5089997;28;20036;-73
2023/04/29 01:58:14;;;;;;;35.38;18.77;;;;;;;8.75;100.00;101429.97;5091268;28;20028;-73
2023/04/29 02:00:41;;;;;;;34.75;18.33;;;;;;;8.69;100.00;101426.16;5073020;28;20052;-72
2023/04/29 02:03:06;;;;;;;31.17;16.20;;;;;;;8.75;100.00;101438.78;5091328;28;20031;-72
2023/04/29 02:05:33;;;;;;;32.95;17.15;;;;;;;8.69;100.00;101431.47;5091118;28;20036;-72
2023/04/29 02:07:59;;;;;;;34.08;17.42;;;;;;;8.71;100.00;101440.13;5090937;28;20540;-72
2023/04/29 02:10:25;;;;;;;37.03;18.85;;;;;;;8.68;100.00;101443.13;5091126;28;20039;-72
2023/04/29 02:12:50;;;;;;;33.00;17.25;;;;;;;8.67;100.00;101443.28;5091104;28;20039;-72
2023/04/29 02:15:16;;;;;;;33.30;18.73;;;;;;;8.66;100.00;101446.94;5090932;28;20469;-73
2023/04/29 02:17:42;;;;;;;34.05;18.25;;;;;;;8.64;100.00;101446.28;5091083;28;20513;-72
2023/04/29 02:20:09;;;;;;;40.45;21.58;;;;;;;8.61;100.00;101447.44;5090941;28;20031;-72
2023/04/29 02:22:34;;;;;;;36.15;20.05;;;;;;;8.62;100.00;101454.44;5089500;28;20020;-72
2023/04/29 02:24:59;;;;;;;31.95;16.67;;;;;;;8.59;100.00;101457.41;5090555;28;20036;-72
2023/04/29 02:27:25;;;;;;;35.70;18.45;;;;;;;8.59;100.00;101454.75;5090610;28;20128;-72
2023/04/29 02:29:50;;;;;;;38.63;21.05;;;;;;;8.61;100.00;101463.41;5090595;28;20020;-72
2023/04/29 02:32:18;;;;;;;39.63;18.15;;;;;;;8.63;100.00;101468.56;5090714;28;20061;-72
2023/04/29 02:34:44;;;;;;;38.85;17.48;;;;;;;8.63;100.00;101466.72;5090525;28;20491;-72
2023/04/29 02:37:10;;;;;;;39.80;20.23;;;;;;;8.62;100.00;101473.06;5090574;28;20032;-72
2023/04/29 02:39:35;;;;;;;39.08;20.02;;;;;;;8.63;100.00;101481.84;5090579;28;20095;-72
2023/04/29 02:42:01;;;;;;;33.90;17.75;;;;;;;8.65;100.00;101482.53;5090558;28;20051;-72
2023/04/29 02:44:27;;;;;;;43.65;22.27;;;;;;;8.65;100.00;101482.53;5090441;28;20032;-72
2023/04/29 02:46:52;;;;;;;39.70;21.70;;;;;;;8.62;100.00;101481.03;5090568;28;20459;-72
2023/04/29 02:49:18;;;;;;;41.08;22.92;;;;;;;8.65;100.00;101491.31;5089698;28;20063;-72
2023/04/29 02:51:43;;;;;;;44.70;23.02;;;;;;;8.61;100.00;101483.84;5090453;28;20034;-72
2023/04/29 02:54:10;;;;;;;42.88;22.10;;;;;;;8.64;100.00;101489.66;5089514;28;20575;-73
2023/04/29 02:56:35;;;;;;;38.55;22.90;;;;;;;8.60;100.00;101490.16;5090200;28;20020;-72
2023/04/29 02:59:01;;;;;;;41.00;18.35;;;;;;;8.68;100.00;101509.59;5090258;28;20383;-73
2023/04/29 03:01:26;;;;;;;38.38;19.23;;;;;;;8.66;100.00;101505.44;5089997;28;20023;-73
2023/04/29 03:03:52;;;;;;;42.67;20.95;;;;;;;8.65;100.00;101501.13;5090021;28;20031;-72
2023/04/29 03:06:18;;;;;;;43.50;19.08;;;;;;;8.60;100.00;101504.28;5089985;28;20040;-72
2023/04/29 03:08:43;;;;;;;38.92;18.95;;;;;;;8.62;100.00;101512.09;5089902;28;20036;-72
2023/04/29 03:11:08;;;;;;;35.00;18.58;;;;;;;8.62;100.00;101509.44;5089915;28;20078;-72
2023/04/29 03:13:34;;;;;;;42.80;21.23;;;;;;;8.64;100.00;101510.91;5090029;28;20031;-72
2023/04/29 03:16:00;;;;;;;33.45;17.23;;;;;;;8.65;100.00;101511.78;5089881;28;20073;-72
2023/04/29 03:18:25;;;;;;;38.13;20.33;;;;;;;8.61;100.00;101511.25;5089832;28;20032;-72
2023/04/29 03:20:50;;;;;;;33.60;18.05;;;;;;;8.61;100.00;101516.56;5089961;28;20024;-72
2023/04/29 03:23:16;;;;;;;35.53;17.90;;;;;;;8.60;100.00;101517.59;5089795;28;20040;-72
2023/04/29 03:25:41;;;;;;;29.95;15.60;;;;;;;8.62;100.00;101518.25;5089629;28;20445;-72
2023/04/29 03:28:06;;;;;;;36.10;19.48;;;;;;;8.53;100.00;101512.09;5089525;28;20036;-72
2023/04/29 03:30:32;;;;;;;35.80;18.02;;;;;;;8.60;100.00;101527.41;5088503;28;20032;-72
2023/04/29 03:32:57;;;;;;;37.60;19.88;;;;;;;8.58;100.00;101524.06;5089557;28;20122;-72
2023/04/29 03:35:22;;;;;;;33.20;16.92;;;;;;;8.56;100.00;101513.59;5089597;28;20019;-72
2023/04/29 03:37:48;;;;;;;33.42;17.85;;;;;;;8.56;100.00;101532.19;5089702;28;20070;-72
2023/04/29 03:40:13;;;;;;;34.35;18.67;;;;;;;8.51;100.00;101521.22;5089521;28;20398;-72
2023/04/29 03:42:39;;;;;;;32.95;17.88;;;;;;;8.52;100.00;101523.72;5089554;28;20538;-72
2023/04/29 03:45:05;;;;;;;34.40;17.75;;;;;;;8.49;100.00;101528.56;5089646;28;20028;-72
2023/04/29 03:47:30;;;;;;;38.90;19.98;;;;;;;8.43;100.00;101516.75;5089387;28;20042;-72
2023/04/29 03:49:56;;;;;;;38.58;18.55;;;;;;;8.48;100.00;101527.72;5089197;28;20445;-72
2023/04/29 03:52:21;;;;;;;38.75;21.13;;;;;;;8.45;100.00;101530.72;5089412;28;20044;-72
2023/04/29 03:54:46;;;;;;;35.22;18.95;;;;;;;8.46;100.00;101535.03;5088301;28;20032;-72
2023/04/29 03:57:12;;;;;;;32.92;16.98;;;;;;;8.42;100.00;101524.91;5089415;28;20046;-72
2023/04/29 03:59:37;;;;;;;35.58;19.17;;;;;;;8.45;100.00;101535.19;5089428;28;20398;-72
2023/04/29 04:02:02;;;;;;;35.42;18.60;;;;;;;8.41;100.00;101533.84;5089322;28;20082;-72
2023/04/29 04:04:28;;;;;;;34.88;17.27;;;;;;;8.44;100.00;101541.53;5088839;28;20024;-72
2023/04/29 04:06:53;;;;;;;33.15;17.23;;;;;;;8.44;100.00;101541.53;5093440;28;20043;-72
2023/04/29 04:09:19;;;;;;;31.88;17.08;;;;;;;8.45;100.00;101546.66;5093324;28;20032;-72
2023/04/29 04:11:44;;;;;;;36.90;18.85;;;;;;;8.45;100.00;101548.50;5092846;28;20039;-72
2023/04/29 04:14:10;;;;;;;33.55;18.63;;;;;;;8.45;100.00;101548.50;5093240;28;20074;-72
2023/04/29 04:16:35;;;;;;;44.72;19.85;;;;;;;8.48;100.00;101556.13;5093063;28;20357;-72
2023/04/29 04:19:00;;;;;;;34.17;16.10;;;;;;;8.46;100.00;101556.31;5093717;28;20069;-72
2023/04/29 04:21:26;;;;;;;30.80;17.20;;;;;;;8.46;100.00;101555.47;5093213;28;20039;-72
2023/04/29 04:23:52;;;;;;;30.55;16.00;;;;;;;8.42;100.00;101556.78;5091864;28;20032;-72
2023/04/29 04:26:19;;;;;;;32.95;17.83;;;;;;;8.44;100.00;101558.28;5093086;28;20039;-72
2023/04/29 04:28:44;;;;;;;37.75;17.38;;;;;;;8.48;100.00;101562.28;5093012;28;20052;-72
2023/04/29 04:31:10;;;;;;;33.13;18.23;;;;;;;8.50;100.00;101567.44;5092935;28;20521;-72
2023/04/29 04:33:35;;;;;;;31.05;16.05;;;;;;;8.49;100.00;101574.59;5092975;28;20031;-72
2023/04/29 04:36:01;;;;;;;32.47;15.48;;;;;;;8.48;100.00;101564.94;5092849;28;20028;-72
2023/04/29 04:38:27;;;;;;;34.45;16.88;;;;;;;8.48;100.00;101566.75;5092867;28;20035;-72
2023/04/29 04:40:52;;;;;;;30.58;15.75;;;;;;;8.50;100.00;101578.91;5092777;28;20024;-72
2023/04/29 04:43:17;;;;;;;29.52;16.15;;;;;;;8.49;100.00;101577.25;5092757;28;20031;-72
2023/04/29 04:45:43;;;;;;;32.85;16.23;;;;;;;8.49;100.00;101582.56;5093161;28;20434;-72
2023/04/29 04:48:08;;;;;;;28.20;14.82;;;;;;;8.51;100.00;101591.22;5091050;28;20544;-72
2023/04/29 04:50:33;;;;;;;30.55;16.48;;;;;;;8.54;100.00;101595.34;5091051;28;20455;-72
2023/04/29 04:52:59;;;;;;;32.60;16.52;;;;;;;8.55;100.00;101600.50;5074180;28;20039;-72
2023/04/29 04:55:25;;;;;;;27.98;13.93;;;;;;;8.54;100.00;101598.84;5092523;28;20024;-73
2023/04/29 04:57:50;;;;;;;29.90;15.13;;;;;;;8.54;100.00;101605.97;5092419;28;20051;-73
2023/04/29 05:00:16;;;;;;;30.45;14.27;;;;;;;8.56;100.00;101617.28;5092235;28;20099;-72
2023/04/29 05:02:41;;;;;;;32.97;16.48;;;;;;;8.51;100.00;101612.47;5092403;28;20032;-72
2023/04/29 05:05:07;;;;;;;27.52;14.75;;;;;;;8.56;100.00;101619.94;5092331;28;20382;-73
2023/04/29 05:07:34;;;;;;;31.08;18.08;;;;;;;8.51;100.00;101616.94;5092436;28;20483;-72
2023/04/29 05:10:03;;;;;;;30.25;16.58;;;;;;;8.51;100.00;101616.94;5092377;28;20059;-72
2023/04/29 05:12:34;;;;;;;29.40;14.45;;;;;;;8.56;100.00;101625.25;5092438;28;20039;-73
2023/04/29 05:14:59;;;;;;;26.42;14.68;;;;;;;8.52;100.00;101623.94;5092156;28;20031;-72
2023/04/29 05:17:25;;;;;;;31.70;16.55;;;;;;;8.58;100.00;101630.41;5091203;28;20495;-72
2023/04/29 05:19:50;;;;;;;29.33;16.38;;;;;;;8.59;100.00;101632.91;5092102;28;20109;-73
2023/04/29 05:22:15;;;;;;;32.08;15.10;;;;;;;8.59;100.00;101632.06;5092278;28;20035;-72
2023/04/29 05:24:41;;;;;;;30.48;17.88;;;;;;;8.55;100.00;101629.75;5091919;28;20434;-72
2023/04/29 05:27:06;;;;;;;28.80;16.02;;;;;;;8.60;100.00;101636.41;5092202;28;20040;-72
2023/04/29 05:29:31;;;;;;;28.92;16.40;;;;;;;8.59;100.00;101638.22;5091850;28;20024;-72
2023/04/29 05:31:57;;;;;;;29.83;15.32;;;;;;;8.57;100.00;101637.56;5090459;28;20043;-72
2023/04/29 05:34:22;;;;;;;29.20;14.38;;;;;;;8.59;100.00;101638.22;5090456;28;20028;-72
2023/04/29 05:36:48;;;;;;;29.38;15.90;;;;;;;8.60;100.00;101647.88;5092004;28;20073;-72
2023/04/29 05:39:13;;;;;;;27.08;15.95;;;;;;;8.62;100.00;101647.69;5091891;28;20024;-72
2023/04/29 05:41:39;;;;;;;27.42;15.00;;;;;;;8.63;100.00;101652.03;5091657;28;20502;-72
2023/04/29 05:44:04;;;;;;;27.95;16.17;;;;;;;8.56;100.00;101635.88;5091695;28;20039;-73
2023/04/29 05:46:29;;;;;;;31.13;15.82;;;;;;;8.62;100.00;101645.88;5091771;28;20051;-72
2023/04/29 05:48:55;;;;;;;32.17;16.98;;;;;;;8.62;100.00;101653.00;5091256;28;20131;-72
2023/04/29 05:51:20;;;;;;;28.38;17.10;;;;;;;8.64;100.00;101657.16;5091518;28;20064;-72
2023/04/29 05:53:45;;;;;;;33.40;17.70;;;;;;;8.62;100.00;101655.66;5091523;28;20511;-72
2023/04/29 05:56:11;;;;;;;30.90;15.00;;;;;;;8.67;100.00;101675.47;5091434;28;20030;-73
2023/04/29 05:58:36;;;;;;;30.15;14.93;;;;;;;8.70;100.00;101669.81;5091618;28;20098;-73
2023/04/29 06:01:02;;;;;;;28.85;14.35;;;;;;;8.73;100.00;101679.31;5091349;28;20032;-73
2023/04/29 06:03:28;;;;;;;25.80;13.52;;;;;;;8.75;100.00;101688.78;5091474;28;20028;-72
2023/04/29 06:05:54;;;;;;;26.27;13.55;;;;;;;8.81;100.00;101691.78;5091260;28;20032;-72
2023/04/29 06:08:19;;;;;;;25.20;13.73;;;;;;;8.82;100.00;101696.09;5091348;28;20028;-73
2023/04/29 06:10:45;;;;;;;29.05;14.90;;;;;;;8.83;100.00;101689.78;5089607;28;20046;-72
2023/04/29 06:13:10;;;;;;;33.25;16.10;;;;;;;8.84;100.00;101697.59;5091096;28;20020;-73
2023/04/29 06:15:36;;;;;;;27.05;14.13;;;;;;;8.86;100.00;101700.94;5090602;28;20036;-73
2023/04/29 06:18:01;;;;;;;25.65;14.63;;;;;;;8.87;100.00;101705.25;5090876;28;20027;-72
2023/04/29 06:20:26;;;;;;;29.85;13.98;;;;;;;8.84;100.00;101708.25;5090863;28;20497;-72
2023/04/29 06:22:52;;;;;;;28.35;13.98;;;;;;;8.80;100.00;101701.56;5090994;28;20078;-72
2023/04/29 06:25:17;;;;;;;26.33;13.85;;;;;;;8.86;100.00;101703.59;5090846;28;20138;-73
2023/04/29 06:27:42;;;;;;;27.92;14.38;;;;;;;8.91;100.00;101703.94;5090157;28;20119;-73
2023/04/29 06:30:08;;;;;;;33.70;15.85;;;;;;;8.96;100.00;101708.75;5089898;28;20386;-72
2023/04/29 06:32:34;;;;;;;28.35;15.73;;;;;;;8.99;100.00;101714.59;5090366;28;20032;-73
2023/04/29 06:35:00;;;;;;;27.60;14.70;;;;;;;9.08;100.00;101715.41;5090767;28;20082;-73
2023/04/29 06:37:25;;;;;;;28.25;14.20;;;;;;;9.16;100.00;101719.91;5090411;28;20028;-73
2023/04/29 06:39:51;;;;;;;26.10;14.70;;;;;;;9.23;100.00;101731.56;5090539;28;20020;-73
2023/04/29 06:42:16;;;;;;;26.27;13.82;;;;;;;9.29;100.00;101725.56;5090411;28;20032;-72
2023/04/29 06:44:42;;;;;;;25.15;14.82;;;;;;;9.35;100.00;101729.38;5090664;28;20073;-73
2023/04/29 06:47:07;;;;;;;25.08;13.80;;;;;;;9.40;100.00;101729.72;5090101;28;20544;-74
2023/04/29 06:49:33;;;;;;;30.55;16.17;;;;;;;9.55;100.00;101748.53;5090072;28;20048;-73
2023/04/29 06:51:58;;;;;;;24.83;13.10;;;;;;;9.62;100.00;101746.88;5090239;28;20042;-74
2023/04/29 06:54:24;;;;;;;25.33;14.13;;;;;;;9.69;100.00;101750.50;5090239;28;20030;-73
2023/04/29 06:56:50;;;;;;;25.13;13.50;;;;;;;9.79;100.00;101751.16;5090173;28;20378;-73
2023/04/29 06:59:15;;;;;;;30.30;13.55;;;;;;;9.83;100.00;101762.31;5090163;28;20108;-73
2023/04/29 07:01:40;;;;;;;22.58;13.13;;;;;;;9.91;100.00;101769.47;5090248;28;20028;-73
2023/04/29 07:04:06;;;;;;;25.17;13.18;;;;;;;9.96;100.00;101765.28;5088742;28;20040;-73
2023/04/29 07:06:31;;;;;;;26.13;14.73;;;;;;;10.01;100.00;101762.94;5090243;28;20027;-73
2023/04/29 07:08:57;;;;;;;24.17;13.38;;;;;;;10.10;100.00;101766.41;5088480;28;20032;-73
2023/04/29 07:11:23;;;;;;;23.00;12.30;;;;;;;10.19;100.00;101769.88;5088426;28;20035;-74
2023/04/29 07:13:51;;;;;;;26.27;14.32;;;;;;;10.21;100.00;101775.88;5089742;28;20502;-73
2023/04/29 07:16:18;;;;;;;23.55;14.02;;;;;;;10.25;100.00;101778.03;5089797;28;20028;-69
2023/04/29 07:18:44;;;;;;;25.95;14.55;;;;;;;10.26;100.00;101790.34;5089637;28;20023;-69
2023/04/29 07:21:09;;;;;;;24.38;13.65;;;;;;;10.19;100.00;101783.19;5088358;28;20043;-69
2023/04/29 07:23:34;;;;;;;22.88;12.73;;;;;;;10.10;100.00;101777.91;5089721;28;20059;-69
2023/04/29 07:26:12;;;;;;;27.75;14.23;;;;;;;10.11;100.00;101786.72;5089504;28;20039;-69
2023/04/29 07:28:38;;;;;;;26.38;13.63;;;;;;;10.14;100.00;101793.53;5089085;28;20332;-69
2023/04/29 07:31:04;;;;;;;25.25;14.65;;;;;;;10.14;100.00;101801.53;5089451;28;20028;-69
2023/04/29 07:33:29;;;;;;;25.83;12.32;;;;;;;10.16;100.00;101803.03;5089683;28;20032;-69
2023/04/29 07:35:55;;;;;;;24.15;12.85;;;;;;;10.16;100.00;101799.53;5089566;28;20115;-69
2023/04/29 07:38:20;;;;;;;25.73;13.52;;;;;;;10.19;100.00;101810.72;5088293;28;20032;-69
2023/04/29 07:40:46;;;;;;;24.83;13.43;;;;;;;10.23;100.00;101801.34;5089135;28;20051;-69
2023/04/29 07:43:11;;;;;;;23.13;12.18;;;;;;;10.41;100.00;101816.34;5089390;28;20120;-69
2023/04/29 07:45:38;;;;;;;25.73;15.18;;;;;;;10.47;100.00;101813.81;5089497;28;20036;-69
2023/04/29 07:48:04;;;;;;;23.88;13.30;;;;;;;10.46;100.00;101803.34;5089269;28;20032;-69
2023/04/29 07:50:35;;;;;;;24.88;13.23;;;;;;;10.53;100.00;101813.13;5089327;28;20056;-69
2023/04/29 07:53:01;;;;;;;23.42;12.57;;;;;;;10.56;100.00;101817.31;5088056;28;20382;-69
2023/04/29 07:55:28;;;;;;;26.33;12.50;;;;;;;10.62;100.00;101819.25;5089271;28;20111;-71
2023/04/29 07:57:54;;;;;;;26.67;13.68;;;;;;;10.71;100.00;101820.88;5089429;28;20031;-69
2023/04/29 08:00:20;;;;;;;21.00;12.73;;;;;;;10.82;100.00;101830.38;5089354;28;20412;-70
2023/04/29 08:02:46;;;;;;;21.00;12.02;;;;;;;10.82;100.00;101830.38;5089387;28;20059;-73
2023/04/29 08:05:11;;;;;;;24.88;12.15;;;;;;;10.87;100.00;101828.00;5089094;28;20030;-74
2023/04/29 08:07:37;;;;;;;23.50;12.52;;;;;;;10.94;100.00;101836.97;5089117;28;20111;-74
2023/04/29 08:10:02;;;;;;;28.05;13.60;;;;;;;10.99;100.00;101836.44;5088723;28;20456;-74
2023/04/29 08:12:28;;;;;;;19.98;10.38;;;;;;;11.08;100.00;101832.72;5087503;28;20359;-74
2023/04/29 08:14:53;;;;;;;24.80;12.65;;;;;;;11.17;100.00;101836.16;5087442;28;20031;-74
2023/04/29 08:17:18;;;;;;;21.35;12.63;;;;;;;11.27;100.00;101834.09;5088988;28;20039;-73
2023/04/29 08:19:44;;;;;;;21.25;12.63;;;;;;;11.30;100.00;101823.06;5089251;28;20493;-74
2023/04/29 08:22:11;;;;;;;23.83;13.20;;;;;;;11.57;100.00;101839.56;5089138;28;20028;-73
2023/04/29 08:24:36;;;;;;;23.60;12.48;;;;;;;11.58;100.00;101849.22;5088967;28;20032;-74
2023/04/29 08:27:03;;;;;;;22.58;13.35;;;;;;;11.71;100.00;101843.28;5087526;28;20043;-74
2023/04/29 08:29:31;;;;;;;24.63;12.20;;;;;;;11.75;100.00;101847.28;5088839;28;20032;-73
2023/04/29 08:31:57;;;;;;;23.00;11.55;;;;;;;11.66;100.00;101833.16;5088970;28;20088;-75
2023/04/29 08:34:22;;;;;;;19.60;10.93;;;;;;;11.91;100.00;101852.50;5089072;28;20028;-74
2023/04/29 08:36:48;;;;;;;22.10;11.95;;;;;;;12.10;100.00;101853.00;5088931;28;20140;-74
2023/04/29 08:39:13;;;;;;;22.30;12.02;;;;;;;12.30;100.00;101845.28;5089127;28;20432;-74
2023/04/29 08:41:38;;;;;;;20.88;11.50;;;;;;;12.45;99.38;101855.00;5089062;28;20043;-74
2023/04/29 08:44:04;;;;;;;20.95;12.73;;;;;;;12.45;99.16;101846.13;5088966;28;20114;-74
2023/04/29 08:46:31;;;;;;;19.73;10.98;;;;;;;12.54;99.00;101858.38;5087552;28;20398;-74
2023/04/29 08:48:57;;;;;;;20.23;11.00;;;;;;;12.53;98.03;101846.03;5088573;28;20107;-74
2023/04/29 08:51:23;;;;;;;23.52;11.68;;;;;;;12.48;98.55;101859.13;5089381;28;20036;-74
2023/04/29 08:53:49;;;;;;;22.17;10.50;;;;;;;12.43;97.72;101865.03;5093016;28;20028;-74
2023/04/29 08:56:20;;;;;;;23.10;11.70;;;;;;;12.33;98.61;101869.00;5092628;28;20482;-75
2023/04/29 08:58:53;;;;;;;26.25;13.15;;;;;;;12.27;96.99;101873.25;5092616;28;20471;-74
2023/04/29 09:01:19;;;;;;;24.33;11.98;;;;;;;12.19;96.29;101876.81;5092483;28;20108;-74
2023/04/29 09:04:03;;;;;;;20.45;11.20;;;;;;;12.27;99.37;101874.06;5092683;28;20028;-74
2023/04/29 09:06:29;;;;;;;19.63;10.27;;;;;;;12.22;95.46;101873.78;5092541;28;20372;-74
2023/04/29 09:08:55;;;;;;;22.33;11.57;;;;;;;12.34;97.07;101871.50;5092311;28;20028;-74
2023/04/29 09:11:21;;;;;;;19.85;10.02;;;;;;;12.42;94.43;101868.75;5092285;28;20044;-74
2023/04/29 09:13:46;;;;;;;21.08;11.65;;;;;;;12.57;95.45;101870.56;5092437;28;20024;-74
2023/04/29 09:16:12;;;;;;;19.85;10.32;;;;;;;12.96;95.24;101869.44;5092000;28;20035;-74
2023/04/29 09:18:46;;;;;;;21.10;10.13;;;;;;;13.34;91.45;101872.81;5092517;28;20028;-74
2023/04/29 09:21:32;;;;;;;20.75;10.70;;;;;;;13.46;90.40;101875.78;5092045;28;20383;-73
2023/04/29 09:23:59;;;;;;;20.55;11.15;;;;;;;13.33;90.94;101863.09;5091750;28;20123;-74
2023/04/29 09:26:26;;;;;;;19.65;9.32;;;;;;;13.24;88.75;101874.94;5092142;28;20032;-73
2023/04/29 09:29:07;;;;;;;19.40;9.85;;;;;;;13.25;89.84;101874.72;5092022;28;20024;-74
2023/04/29 09:31:32;;;;;;;20.27;10.75;;;;;;;13.35;90.39;101886.00;5092017;28;20138;-74
2023/04/29 09:33:57;;;;;;;18.67;10.63;;;;;;;13.45;88.01;101882.19;5092114;28;20542;-74
2023/04/29 09:36:55;;;;;;;20.35;9.93;;;;;;;13.53;90.44;101872.16;5091966;28;20392;-74
2023/04/29 09:39:22;;;;;;;20.88;9.73;;;;;;;13.65;87.17;101880.53;5091900;28;20062;-74
2023/04/29 09:41:53;;;;;;;19.08;10.15;;;;;;;13.91;88.98;101873.75;5091530;28;20031;-74
2023/04/29 09:44:30;;;;;;;20.35;10.88;;;;;;;14.06;88.09;101879.84;5091866;28;20032;-74
2023/04/29 09:47:04;;;;;;;22.73;8.77;;;;;;;13.85;88.34;101883.38;5091611;28;20119;-69
2023/04/29 09:49:36;;;;;;;19.05;9.60;;;;;;;13.48;86.43;101888.00;5091542;28;20052;-69
2023/04/29 09:52:12;;;;;;;15.85;8.68;;;;;;;13.35;88.08;101879.81;5091487;28;20383;-69
2023/04/29 09:54:39;;;;;;;23.10;10.48;;;;;;;13.19;84.78;101888.06;5091613;28;20536;-69
2023/04/29 09:57:06;;;;;;;17.77;9.02;;;;;;;13.25;86.79;101877.41;5091490;28;20123;-69
2023/04/29 09:59:35;;;;;;;18.85;9.82;;;;;;;13.23;85.63;101871.44;5091460;28;20127;-69
2023/04/29 10:02:02;;;;;;;21.40;11.60;;;;;;;13.15;86.03;101884.91;5091241;28;20445;-69
2023/04/29 10:04:31;;;;;;;15.20;8.35;;;;;;;13.00;85.75;101886.81;5091340;28;20062;-69
2023/04/29 10:06:59;;;;;;;14.43;8.40;;;;;;;12.91;87.79;101897.59;5091019;28;20079;-68
2023/04/29 10:09:25;;;;;;;16.90;10.18;;;;;;;13.07;89.48;101890.38;5089992;28;20137;-69
2023/04/29 10:11:52;;;;;;;20.08;9.82;;;;;;;13.59;86.27;101892.00;5084056;28;20052;-68
2023/04/29 10:14:19;;;;;;;23.48;8.88;;;;;;;13.93;86.13;101902.03;5084944;28;20027;-69
2023/04/29 10:16:53;;;;;;;16.40;8.07;;;;;;;13.74;81.73;101905.38;5084695;28;20039;-68
2023/04/29 10:19:28;;;;;;;16.55;8.18;;;;;;;13.61;85.15;101900.69;5084629;28;20150;-68
2023/04/29 10:21:59;;;;;;;19.40;9.00;;;;;;;13.48;82.54;101905.94;5084669;28;20467;-70
2023/04/29 10:24:25;;;;;;;20.98;10.65;;;;;;;13.43;83.70;101903.81;5084419;28;20073;-68
2023/04/29 10:26:54;;;;;;;24.08;10.65;;;;;;;13.59;83.64;101919.63;5084559;28;20028;-70
2023/04/29 10:29:21;;;;;;;13.98;7.65;;;;;;;13.77;82.10;101905.81;5084501;28;20036;-70
2023/04/29 10:31:48;;;;;;;18.45;9.50;;;;;;;13.97;82.47;101899.81;5083979;28;20057;-70
2023/04/29 10:34:16;;;;;;;18.83;8.60;;;;;;;14.30;80.73;101909.97;5084511;28;20026;-70
2023/04/29 10:36:41;;;;;;;15.68;7.88;;;;;;;14.34;81.23;101912.06;5084587;28;20783;-69
2023/04/29 10:39:18;;;;;;;13.35;7.07;;;;;;;14.31;77.77;101907.09;5085012;28;20042;-69
2023/04/29 10:41:47;;;;;;;14.13;8.25;;;;;;;14.17;77.45;101913.38;5083242;28;20469;-70
2023/04/29 10:44:13;;;;;;;13.75;7.13;;;;;;;14.12;75.97;101913.97;5083977;28;20040;-70
2023/04/29 10:46:39;;;;;;;15.40;7.60;;;;;;;14.02;79.98;101913.47;5084368;28;20024;-70
2023/04/29 10:49:06;;;;;;;13.80;6.95;;;;;;;13.92;78.88;101907.59;5082202;28;20079;-69
2023/04/29 10:51:38;;;;;;;17.85;8.82;;;;;;;13.79;79.13;101919.03;5083024;28;20064;-68
2023/04/29 10:54:14;;;;;;;16.40;8.60;;;;;;;13.69;82.46;101919.34;5083249;28;20068;-69
2023/04/29 10:56:46;;;;;;;16.92;8.30;;;;;;;13.53;82.00;101920.41;5084369;28;20077;-70
2023/04/29 10:59:13;;;;;;;;;;;;;;;13.50;84.26;101920.78;5084383;28;20058;-68
2023/04/29 11:01:49;;;;;;;18.02;8.48;;;;;;;13.50;83.54;101925.34;5083339;28;19920;-68
2023/04/29 11:04:16;;;;;;;15.85;8.60;;;;;;;13.59;81.48;101929.53;5083507;28;20095;-69
2023/04/29 11:06:53;;;;;;;18.63;8.90;;;;;;;13.72;83.69;101918.13;5083876;28;20061;-69
2023/04/29 11:09:25;;;;;;;15.75;8.43;;;;;;;13.85;81.03;101920.94;5083530;28;20464;-69